Aviation Digital Data Service (ADDS)

Output produced by METARs form (0329 UTC 30 June 2015)
found at http://aviationweather.gov/adds/metars/
 
KFRG 300253Z 20005KT 10SM CLR 20/16 A2996 RMK AO2 SLP145 T02000161 51015
KISP 300256Z 22005KT 10SM CLR 19/16 A2995 RMK AO2 SLP141 T01890161 52014
KISP 300231Z 3003/3024 22005KT P6SM FEW050 SCT250 
     FM300500 VRB04KT P6SM SCT250 
     FM301400 17008KT P6SM FEW050 SCT150 
     FM301800 17012KT P6SM SCT050 BKN150
       
KJFK 300251Z 19007KT 10SM FEW250 21/16 A2996 RMK AO2 SLP145 T02110156 51014
KJFK 300231Z 3003/0106 19006KT P6SM FEW050 SCT250 
     FM301400 17009KT P6SM FEW050 SCT150 
     FM301800 16015KT P6SM SCT050 BKN120 
     FM010000 16010KT P6SM BKN050 BKN100
       
KBDR 300252Z AUTO 23006KT 10SM CLR 21/17 A2995 RMK AO2 SLP142 T02060167 53015
KBDR 300231Z 3003/3024 VRB04KT P6SM FEW050 
     FM301400 18008KT P6SM FEW050 SCT150 
     FM301800 16011KT P6SM SCT050 BKN150